createdAt,value
2023-05-24T00:02:03.896Z,16.83
2023-05-24T00:04:53.666Z,16.78
2023-05-24T00:07:43.046Z,16.73
2023-05-24T00:10:32.409Z,16.65
2023-05-24T00:13:21.685Z,16.59
2023-05-24T00:16:12.568Z,16.46
2023-05-24T00:19:02.223Z,16.44
2023-05-24T00:21:51.596Z,16.43
2023-05-24T00:24:40.891Z,16.45
2023-05-24T00:27:30.364Z,16.47
2023-05-24T00:30:19.803Z,16.44
2023-05-24T00:33:11.849Z,16.40
2023-05-24T00:36:01.116Z,16.36
2023-05-24T00:38:50.660Z,16.37
2023-05-24T00:41:40.077Z,16.34
2023-05-24T00:44:29.730Z,16.25
2023-05-24T00:47:19.236Z,16.18
2023-05-24T00:50:13.297Z,16.13
2023-05-24T00:53:05.372Z,16.07
2023-05-24T00:55:56.283Z,16.07
2023-05-24T00:58:46.168Z,16.06
2023-05-24T01:01:35.704Z,15.98
2023-05-24T01:04:26.158Z,15.82
2023-05-24T01:07:27.982Z,15.71
2023-05-24T01:10:26.653Z,15.71
2023-05-24T01:13:25.689Z,15.62
2023-05-24T01:16:24.404Z,15.56
2023-05-24T01:19:50.284Z,15.54
2023-05-24T01:23:16.707Z,15.54
2023-05-24T01:26:22.359Z,15.50
2023-05-24T01:29:14.377Z,15.51
2023-05-24T01:32:03.750Z,15.42
2023-05-24T01:34:53.144Z,15.41
2023-05-24T01:37:42.513Z,15.38
2023-05-24T01:40:31.955Z,15.36
2023-05-24T01:43:31.517Z,15.29
2023-05-24T01:46:33.584Z,15.31
2023-05-24T01:49:28.217Z,15.34
2023-05-24T01:52:22.230Z,15.36
2023-05-24T01:55:13.274Z,15.39
2023-05-24T01:58:05.838Z,15.29
2023-05-24T02:00:55.829Z,15.37
2023-05-24T02:03:47.333Z,15.36
2023-05-24T02:06:38.220Z,15.26
2023-05-24T02:09:30.681Z,15.21
2023-05-24T02:12:19.945Z,15.22
2023-05-24T02:15:11.452Z,15.14
2023-05-24T02:18:01.567Z,15.11
2023-05-24T02:20:53.612Z,15.10
2023-05-24T02:23:43.060Z,15.07
2023-05-24T02:26:33.099Z,15.01
2023-05-24T02:29:23.169Z,15.00
2023-05-24T02:32:12.565Z,14.91
2023-05-24T02:35:03.115Z,14.94
2023-05-24T02:37:54.186Z,14.93
2023-05-24T02:40:43.837Z,14.89
2023-05-24T02:43:33.266Z,14.83
2023-05-24T02:46:22.675Z,14.84
2023-05-24T02:49:12.074Z,14.73
2023-05-24T02:52:01.716Z,14.78
2023-05-24T02:54:52.554Z,14.74
2023-05-24T02:57:43.643Z,14.73
2023-05-24T03:00:33.439Z,14.72
2023-05-24T03:03:23.116Z,14.68
2023-05-24T03:06:14.217Z,14.66
2023-05-24T03:09:03.787Z,14.63
2023-05-24T03:11:54.753Z,14.61
2023-05-24T03:14:44.268Z,14.62
2023-05-24T03:17:33.750Z,14.52
2023-05-24T03:20:23.961Z,14.54
2023-05-24T03:23:15.105Z,14.45
2023-05-24T03:26:05.391Z,14.44
2023-05-24T03:28:56.683Z,14.40
2023-05-24T03:31:53.923Z,14.32
2023-05-24T03:34:43.477Z,14.25
2023-05-24T03:37:32.968Z,14.30
2023-05-24T03:40:22.393Z,14.26
2023-05-24T03:43:18.634Z,14.22
2023-05-24T03:46:13.785Z,14.18
2023-05-24T03:49:04.820Z,14.15
2023-05-24T03:51:54.212Z,14.13
2023-05-24T03:54:43.945Z,14.10
2023-05-24T03:57:33.650Z,14.09
2023-05-24T04:00:24.306Z,14.07
2023-05-24T04:03:15.311Z,14.04
2023-05-24T04:06:05.053Z,14.00
2023-05-24T04:08:54.453Z,13.99
2023-05-24T04:11:43.740Z,14.00
2023-05-24T04:14:35.267Z,13.92
2023-05-24T04:17:25.517Z,13.91
2023-05-24T04:20:17.903Z,13.86
2023-05-24T04:23:07.252Z,13.91
2023-05-24T04:25:56.843Z,13.89
2023-05-24T04:28:47.020Z,13.92
2023-05-24T04:31:37.051Z,13.92
2023-05-24T04:34:29.744Z,13.87
2023-05-24T04:37:20.912Z,13.82
2023-05-24T04:40:12.441Z,13.85
2023-05-24T04:43:01.727Z,13.83
2023-05-24T04:45:54.028Z,13.71
2023-05-24T04:48:45.564Z,13.78
2023-05-24T04:51:38.768Z,13.76
2023-05-24T04:54:31.938Z,13.78
2023-05-24T04:57:21.248Z,13.74
2023-05-24T05:00:12.097Z,13.75
2023-05-24T05:03:01.597Z,13.82
2023-05-24T05:05:51.814Z,13.85
2023-05-24T05:08:41.219Z,13.82
2023-05-24T05:11:33.314Z,13.86
2023-05-24T05:14:22.609Z,13.87
2023-05-24T05:17:13.781Z,13.86
2023-05-24T05:20:06.122Z,13.84
2023-05-24T05:22:55.584Z,13.86
2023-05-24T05:25:50.594Z,13.92
2023-05-24T05:28:44.980Z,13.86
2023-05-24T05:31:34.435Z,13.88
2023-05-24T05:34:23.789Z,13.89
2023-05-24T05:37:13.184Z,13.90
2023-05-24T05:40:06.653Z,13.94
2023-05-24T05:43:00.605Z,13.91
2023-05-24T05:45:51.410Z,13.90
2023-05-24T05:48:46.218Z,13.97
2023-05-24T05:51:39.917Z,13.97
2023-05-24T05:54:35.024Z,14.04
2023-05-24T05:57:30.372Z,14.11
2023-05-24T06:00:22.359Z,14.17
2023-05-24T06:03:13.412Z,14.13
2023-05-24T06:06:02.937Z,14.21
2023-05-24T06:08:52.211Z,14.30
2023-05-24T06:11:45.150Z,14.33
2023-05-24T06:14:34.605Z,14.38
2023-05-24T06:17:24.654Z,14.41
2023-05-24T06:20:17.182Z,14.42
2023-05-24T06:23:07.488Z,14.39
2023-05-24T06:25:56.932Z,14.38
2023-05-24T06:28:46.281Z,14.48
2023-05-24T06:31:35.624Z,14.52
2023-05-24T06:34:24.992Z,14.55
2023-05-24T06:37:16.297Z,14.61
2023-05-24T06:40:09.105Z,14.52
2023-05-24T06:42:59.756Z,14.61
2023-05-24T06:45:49.385Z,14.68
2023-05-24T06:48:39.204Z,14.74
2023-05-24T06:51:28.554Z,14.73
2023-05-24T06:54:19.702Z,14.83
2023-05-24T06:57:09.156Z,14.97
2023-05-24T06:59:58.496Z,15.02
2023-05-24T07:02:48.011Z,14.98
2023-05-24T07:05:37.350Z,15.07
2023-05-24T07:08:27.263Z,15.02
2023-05-24T07:11:18.188Z,15.04
2023-05-24T07:14:07.543Z,15.22
2023-05-24T07:17:00.178Z,15.24
2023-05-24T07:19:49.742Z,15.30
2023-05-24T07:22:39.089Z,15.52
2023-05-24T07:25:28.642Z,15.59
2023-05-24T07:28:20.445Z,15.62
2023-05-24T07:31:11.097Z,15.67
2023-05-24T07:34:00.415Z,15.33
2023-05-24T07:36:49.942Z,15.45
2023-05-24T07:39:39.332Z,15.34
2023-05-24T07:42:28.616Z,15.79
2023-05-24T07:45:19.456Z,16.02
2023-05-24T07:48:08.886Z,16.33
2023-05-24T07:50:58.357Z,16.45
2023-05-24T07:53:47.791Z,16.41
2023-05-24T07:56:37.847Z,16.66
2023-05-24T07:59:27.186Z,16.80
2023-05-24T08:02:18.241Z,16.80
2023-05-24T08:05:10.336Z,16.86
2023-05-24T08:08:00.993Z,17.00
2023-05-24T08:10:50.787Z,17.03
2023-05-24T08:13:40.049Z,17.16
2023-05-24T08:16:29.461Z,17.25
2023-05-24T08:19:21.271Z,17.22
2023-05-24T08:22:10.538Z,17.41
2023-05-24T08:24:59.931Z,17.59
2023-05-24T08:27:49.317Z,17.60
2023-05-24T08:30:38.875Z,17.69
2023-05-24T08:33:29.214Z,17.72
2023-05-24T08:36:20.122Z,17.78
2023-05-24T08:39:09.433Z,17.97
2023-05-24T08:42:09.409Z,17.80
2023-05-24T08:45:05.715Z,17.87
2023-05-24T08:47:57.122Z,17.95
2023-05-24T08:50:47.845Z,18.04
2023-05-24T08:53:40.339Z,18.21
2023-05-24T08:56:30.380Z,18.04
2023-05-24T08:59:19.830Z,17.91
2023-05-24T09:02:12.699Z,18.04
2023-05-24T09:05:02.636Z,18.10
2023-05-24T09:07:52.676Z,18.23
2023-05-24T09:10:54.069Z,18.25
2023-05-24T09:13:46.900Z,18.20
2023-05-24T09:16:36.983Z,18.30
2023-05-24T09:19:28.013Z,18.58
2023-05-24T09:22:20.319Z,18.73
2023-05-24T09:25:11.300Z,18.59
2023-05-24T09:28:08.801Z,18.70
2023-05-24T09:31:07.414Z,18.68
2023-05-24T09:33:57.477Z,18.99
2023-05-24T09:36:49.517Z,19.34
2023-05-24T09:39:39.532Z,19.39
2023-05-24T09:42:30.361Z,19.34
2023-05-24T09:45:29.354Z,19.39
2023-05-24T09:48:19.440Z,19.26
2023-05-24T09:51:10.339Z,19.18
2023-05-24T09:54:02.568Z,19.15
2023-05-24T09:56:53.792Z,19.40
2023-05-24T09:59:44.332Z,19.63
2023-05-24T10:02:41.610Z,19.81
2023-05-24T10:05:44.782Z,20.01
2023-05-24T10:08:36.473Z,20.27
2023-05-24T10:11:26.411Z,20.89
2023-05-24T10:14:16.373Z,21.43
2023-05-24T10:17:06.638Z,21.65
2023-05-24T10:19:57.549Z,21.45
2023-05-24T10:22:49.601Z,21.35
2023-05-24T10:25:45.575Z,20.85
2023-05-24T10:28:39.821Z,20.61
2023-05-24T10:31:34.460Z,20.61
2023-05-24T10:34:24.221Z,20.80
2023-05-24T10:37:15.034Z,20.86
2023-05-24T10:40:06.552Z,20.68
2023-05-24T10:42:55.991Z,20.66
2023-05-24T10:45:50.841Z,20.37
2023-05-24T10:48:41.602Z,20.35
2023-05-24T10:51:38.717Z,20.06
2023-05-24T10:54:29.756Z,20.09
2023-05-24T10:57:25.765Z,19.95
2023-05-24T11:00:35.614Z,19.91
2023-05-24T11:03:41.784Z,19.82
2023-05-24T11:06:50.639Z,19.73
2023-05-24T11:09:46.635Z,19.97
2023-05-24T11:12:38.981Z,20.28
2023-05-24T11:15:28.870Z,19.82
2023-05-24T11:18:20.478Z,20.24
2023-05-24T11:21:10.498Z,20.36
2023-05-24T11:23:59.955Z,20.43
2023-05-24T11:26:52.338Z,20.61
2023-05-24T11:29:46.797Z,20.73
2023-05-24T11:32:36.232Z,21.01
2023-05-24T11:35:28.250Z,21.58
2023-05-24T11:38:18.803Z,21.56
2023-05-24T11:41:09.545Z,21.63
2023-05-24T11:44:01.014Z,21.79
2023-05-24T11:46:50.409Z,21.94
2023-05-24T11:49:39.786Z,21.92
2023-05-24T11:52:29.243Z,21.82
2023-05-24T11:55:25.995Z,21.60
2023-05-24T11:58:24.441Z,21.94
2023-05-24T12:01:27.524Z,22.77
2023-05-24T12:04:16.937Z,23.13
2023-05-24T12:07:11.730Z,23.07
2023-05-24T12:10:01.040Z,23.22
2023-05-24T12:12:50.614Z,23.68
2023-05-24T12:15:40.011Z,24.25
2023-05-24T12:18:31.095Z,24.46
2023-05-24T12:21:21.619Z,24.75
2023-05-24T12:24:13.034Z,25.04
2023-05-24T12:27:07.194Z,25.46
2023-05-24T12:29:56.564Z,25.64
2023-05-24T12:32:47.040Z,25.62
2023-05-24T12:35:38.053Z,25.69
2023-05-24T12:38:27.910Z,26.22
2023-05-24T12:41:18.046Z,26.22
2023-05-24T12:44:07.878Z,26.61
2023-05-24T12:46:59.209Z,26.51
2023-05-24T12:49:49.126Z,26.09
2023-05-24T12:52:39.924Z,26.46
2023-05-24T12:55:30.566Z,26.63
2023-05-24T12:58:20.034Z,26.95
2023-05-24T13:01:09.520Z,27.03
2023-05-24T13:03:58.995Z,27.38
2023-05-24T13:06:49.389Z,27.52
2023-05-24T13:09:40.258Z,27.60
2023-05-24T13:12:29.608Z,27.53
2023-05-24T13:15:20.108Z,26.99
2023-05-24T13:18:09.509Z,26.81
2023-05-24T13:21:00.625Z,26.59
2023-05-24T13:23:50.032Z,26.19
2023-05-24T13:26:40.724Z,26.03
2023-05-24T13:29:39.346Z,25.79
2023-05-24T13:32:35.531Z,25.54
2023-05-24T13:35:24.841Z,25.47
2023-05-24T13:38:14.463Z,24.88
2023-05-24T13:41:03.836Z,24.86
2023-05-24T13:43:55.090Z,25.12
2023-05-24T13:46:46.013Z,25.37
2023-05-24T13:49:39.602Z,25.44
2023-05-24T13:52:31.760Z,25.12
2023-05-24T13:55:21.334Z,24.97
2023-05-24T13:58:13.954Z,24.43
2023-05-24T14:01:06.181Z,24.38
2023-05-24T14:03:57.436Z,24.00
2023-05-24T14:06:48.312Z,23.49
2023-05-24T14:09:46.015Z,23.03
2023-05-24T14:12:38.319Z,22.92
2023-05-24T14:15:27.963Z,22.89
2023-05-24T14:18:18.739Z,22.68
2023-05-24T14:21:08.811Z,22.47
2023-05-24T14:24:00.860Z,22.57
2023-05-24T14:26:50.257Z,22.66
2023-05-24T14:29:39.629Z,22.50
2023-05-24T14:32:29.182Z,22.42
2023-05-24T14:35:25.084Z,22.36
2023-05-24T14:38:14.341Z,22.08
2023-05-24T14:41:04.021Z,22.48
2023-05-24T14:43:55.778Z,22.48
2023-05-24T14:46:48.379Z,22.38
2023-05-24T14:49:37.791Z,22.29
2023-05-24T14:52:30.622Z,22.38
2023-05-24T14:55:22.154Z,22.08
2023-05-24T14:58:14.776Z,22.24
2023-05-24T15:01:04.366Z,22.26
2023-05-24T15:03:53.967Z,22.26
2023-05-24T15:06:43.570Z,22.28
2023-05-24T15:09:34.540Z,22.29
2023-05-24T15:12:24.184Z,22.45
2023-05-24T15:15:13.767Z,22.43
2023-05-24T15:18:03.489Z,22.30
2023-05-24T15:20:53.299Z,22.15
2023-05-24T15:23:42.793Z,22.19
2023-05-24T15:26:33.983Z,22.20
2023-05-24T15:29:23.434Z,22.32
2023-05-24T15:32:12.733Z,22.58
2023-05-24T15:35:02.121Z,22.60
2023-05-24T15:37:51.456Z,22.70
2023-05-24T15:40:42.373Z,22.71
2023-05-24T15:43:33.484Z,22.87
2023-05-24T15:46:23.429Z,22.80
2023-05-24T15:49:12.836Z,22.74
2023-05-24T15:52:05.273Z,22.83
2023-05-24T15:54:54.886Z,22.64
2023-05-24T15:57:44.197Z,22.42
2023-05-24T16:00:34.906Z,22.27
2023-05-24T16:03:24.385Z,22.33
2023-05-24T16:06:14.516Z,22.21
2023-05-24T16:09:05.465Z,21.70
2023-05-24T16:11:54.874Z,21.78
2023-05-24T16:14:44.226Z,21.61
2023-05-24T16:17:35.010Z,21.63
2023-05-24T16:20:24.542Z,21.52
2023-05-24T16:23:13.956Z,21.61
2023-05-24T16:26:03.257Z,21.37
2023-05-24T16:28:52.546Z,21.41
2023-05-24T16:31:41.928Z,21.30
2023-05-24T16:34:41.485Z,21.20
2023-05-24T16:37:41.634Z,20.92
2023-05-24T16:40:30.969Z,20.99
2023-05-24T16:43:23.277Z,20.90
2023-05-24T16:46:12.604Z,20.99
2023-05-24T16:49:02.288Z,20.86
2023-05-24T16:51:53.220Z,20.81
2023-05-24T16:54:42.825Z,20.66
2023-05-24T16:57:32.092Z,20.61
2023-05-24T17:00:22.694Z,20.53
2023-05-24T17:03:12.537Z,20.35
2023-05-24T17:06:04.037Z,20.42
2023-05-24T17:08:54.912Z,20.32
2023-05-24T17:11:44.255Z,20.35
2023-05-24T17:14:33.791Z,20.23
2023-05-24T17:17:23.162Z,20.06
2023-05-24T17:20:14.639Z,19.99
2023-05-24T17:23:04.315Z,19.91
2023-05-24T17:25:56.593Z,19.84
2023-05-24T17:28:47.123Z,19.72
2023-05-24T17:31:36.484Z,19.75
2023-05-24T17:34:25.947Z,19.75
2023-05-24T17:37:15.231Z,19.83
2023-05-24T17:40:04.940Z,19.74
2023-05-24T17:42:55.866Z,19.86
2023-05-24T17:45:45.594Z,19.91
2023-05-24T17:48:36.979Z,19.74
2023-05-24T17:51:26.387Z,19.78
2023-05-24T17:54:15.949Z,19.82
2023-05-24T17:57:05.996Z,19.63
2023-05-24T17:59:56.849Z,19.66
2023-05-24T18:02:46.175Z,19.76
2023-05-24T18:05:36.048Z,19.64
2023-05-24T18:08:26.170Z,19.57
2023-05-24T18:11:15.829Z,19.44
2023-05-24T18:14:05.106Z,19.43
2023-05-24T18:16:58.458Z,19.47
2023-05-24T18:19:48.125Z,19.45
2023-05-24T18:22:37.739Z,19.53
2023-05-24T18:25:27.116Z,19.50
2023-05-24T18:28:16.505Z,19.49
2023-05-24T18:31:08.509Z,19.49
2023-05-24T18:34:01.413Z,19.50
2023-05-24T18:36:52.507Z,19.44
2023-05-24T18:39:41.952Z,19.51
2023-05-24T18:42:31.373Z,19.53
2023-05-24T18:45:21.171Z,19.54
2023-05-24T18:48:11.376Z,19.45
2023-05-24T18:51:02.230Z,19.45
2023-05-24T18:53:51.954Z,19.42
2023-05-24T18:56:41.560Z,19.32
2023-05-24T18:59:31.775Z,19.33
2023-05-24T19:02:21.277Z,19.39
2023-05-24T19:05:11.424Z,19.27
2023-05-24T19:08:02.114Z,19.38
2023-05-24T19:10:51.891Z,19.33
2023-05-24T19:13:41.310Z,19.35
2023-05-24T19:16:31.034Z,19.28
2023-05-24T19:19:20.489Z,19.25
2023-05-24T19:22:09.866Z,19.21
2023-05-24T19:25:00.741Z,19.20
2023-05-24T19:30:42.814Z,18.94
2023-05-24T19:33:32.152Z,19.15
2023-05-24T19:36:21.698Z,19.15
2023-05-24T19:39:10.993Z,19.14
2023-05-24T19:42:01.828Z,19.13
2023-05-24T19:44:51.551Z,19.04
2023-05-24T19:47:41.366Z,19.04
2023-05-24T19:50:31.278Z,19.01
2023-05-24T19:53:20.855Z,18.95
2023-05-24T19:56:12.288Z,19.02
2023-05-24T19:59:03.169Z,19.02
2023-05-24T20:01:52.558Z,19.02
2023-05-24T20:04:43.988Z,18.93
2023-05-24T20:07:33.602Z,18.98
2023-05-24T20:10:23.112Z,19.00
2023-05-24T20:13:13.235Z,18.92
2023-05-24T20:16:04.282Z,18.90
2023-05-24T20:18:54.827Z,18.81
2023-05-24T20:21:44.121Z,18.81
2023-05-24T20:24:33.596Z,18.69
2023-05-24T20:27:23.046Z,18.71
2023-05-24T20:30:13.971Z,18.62
2023-05-24T20:33:04.911Z,18.74
2023-05-24T20:35:54.568Z,18.78
2023-05-24T20:38:43.976Z,18.77
2023-05-24T20:41:34.286Z,18.81
2023-05-24T20:44:23.545Z,18.82
2023-05-24T20:47:13.825Z,18.71
2023-05-24T20:50:04.845Z,18.81
2023-05-24T20:52:54.272Z,18.75
2023-05-24T20:55:44.087Z,18.76
2023-05-24T20:58:33.619Z,18.72
2023-05-24T21:01:23.292Z,18.65
2023-05-24T21:04:12.708Z,18.55
2023-05-24T21:07:03.524Z,18.54
2023-05-24T21:09:54.165Z,18.63
2023-05-24T21:12:43.538Z,18.60
2023-05-24T21:15:33.278Z,18.64
2023-05-24T21:18:22.792Z,18.58
2023-05-24T21:21:12.277Z,18.63
2023-05-24T21:24:03.524Z,18.64
2023-05-24T21:26:52.873Z,18.57
2023-05-24T21:29:42.556Z,18.65
2023-05-24T21:32:31.957Z,18.57
2023-05-24T21:35:21.772Z,18.56
2023-05-24T21:38:11.067Z,18.62
2023-05-24T21:41:01.920Z,18.60
2023-05-24T21:43:51.715Z,18.50
2023-05-24T21:46:41.332Z,18.52
2023-05-24T21:49:30.897Z,18.44
2023-05-24T21:52:20.918Z,18.47
2023-05-24T21:55:10.874Z,18.40
2023-05-24T21:58:01.597Z,18.47
2023-05-24T22:00:51.396Z,18.41
2023-05-24T22:03:41.072Z,18.48
2023-05-24T22:06:31.205Z,18.49
2023-05-24T22:09:20.578Z,18.38
2023-05-24T22:12:12.797Z,18.39
2023-05-24T22:15:03.941Z,18.33
2023-05-24T22:17:58.414Z,18.31
2023-05-24T22:20:50.689Z,18.24
2023-05-24T22:23:40.096Z,18.29
2023-05-24T22:26:30.696Z,18.24
2023-05-24T22:29:29.119Z,18.24
2023-05-24T22:32:20.074Z,18.26
2023-05-24T22:35:10.218Z,18.29
2023-05-24T22:37:59.569Z,18.25
2023-05-24T22:40:49.350Z,18.21
2023-05-24T22:43:38.617Z,18.20
2023-05-24T22:46:28.062Z,18.14
2023-05-24T22:49:19.827Z,18.09
2023-05-24T22:52:09.319Z,18.01
2023-05-24T22:54:58.713Z,18.02
2023-05-24T22:57:48.279Z,17.99
2023-05-24T23:00:37.663Z,17.97
2023-05-24T23:03:27.052Z,17.98
2023-05-24T23:06:18.006Z,18.05
2023-05-24T23:09:08.159Z,17.87
2023-05-24T23:11:59.021Z,17.98
2023-05-24T23:14:48.512Z,17.98
2023-05-24T23:17:37.893Z,17.91
2023-05-24T23:20:27.997Z,17.78
2023-05-24T23:23:19.169Z,17.68
2023-05-24T23:26:08.745Z,17.75
2023-05-24T23:28:58.089Z,17.67
2023-05-24T23:31:47.580Z,17.71
2023-05-24T23:34:37.645Z,17.72
2023-05-24T23:37:27.180Z,17.60
2023-05-24T23:40:17.962Z,17.66
2023-05-24T23:43:07.303Z,17.70
2023-05-24T23:45:56.744Z,17.59
2023-05-24T23:48:46.193Z,17.59
2023-05-24T23:51:35.997Z,17.55
2023-05-24T23:54:25.344Z,17.37
2023-05-24T23:57:38.537Z,17.44
